createdAt,value
2018-05-03T00:02:50.115Z,4.67
2018-05-03T00:06:54.620Z,5.47
2018-05-03T00:10:57.911Z,5.97
2018-05-03T00:15:00.566Z,4.13
2018-05-03T00:19:04.027Z,7.50
2018-05-03T00:23:06.583Z,7.63
2018-05-03T00:27:09.864Z,5.47
2018-05-03T00:31:12.446Z,8.27
2018-05-03T00:35:14.967Z,7.07
2018-05-03T00:39:19.734Z,10.07
2018-05-03T00:43:22.259Z,7.57
2018-05-03T00:47:24.810Z,5.13
2018-05-03T00:51:27.336Z,6.50
2018-05-03T00:55:30.310Z,3.93
2018-05-03T00:59:33.595Z,4.43
2018-05-03T01:03:36.146Z,5.23
2018-05-03T01:07:38.679Z,5.50
2018-05-03T01:11:51.734Z,6.57
2018-05-03T01:15:54.334Z,6.17
2018-05-03T01:19:57.195Z,6.60
2018-05-03T01:23:59.730Z,5.20
2018-05-03T01:28:02.275Z,6.17
2018-05-03T01:32:04.816Z,4.40
2018-05-03T01:36:19.278Z,4.43
2018-05-03T01:40:21.807Z,5.23
2018-05-03T01:44:24.367Z,5.03
2018-05-03T01:48:26.879Z,4.40
2018-05-03T01:52:29.417Z,4.40
2018-05-03T01:56:31.923Z,4.17
2018-05-03T02:00:34.458Z,6.13
2018-05-03T02:04:37.016Z,4.03
2018-05-03T02:08:39.562Z,5.27
2018-05-03T02:12:42.079Z,4.47
2018-05-03T02:16:44.631Z,5.37
2018-05-03T02:20:47.264Z,5.10
2018-05-03T02:24:49.811Z,5.07
2018-05-03T02:28:52.326Z,5.07
2018-05-03T02:32:54.963Z,5.10
2018-05-03T02:36:57.485Z,3.97
2018-05-03T02:41:00.028Z,4.60
2018-05-03T02:45:02.547Z,4.80
2018-05-03T02:49:05.101Z,5.83
2018-05-03T02:53:08.387Z,5.83
2018-05-03T02:57:22.847Z,7.73
2018-05-03T03:01:43.706Z,6.47
2018-05-03T03:05:58.324Z,5.37
2018-05-03T03:15:07.767Z,5.43
2018-05-03T03:19:26.849Z,5.07
2018-05-03T03:23:47.095Z,4.50
2018-05-03T03:28:16.752Z,4.53
2018-05-03T03:32:31.217Z,3.73
2018-05-03T03:37:02.862Z,4.43
2018-05-03T03:41:17.169Z,4.20
2018-05-03T03:45:19.683Z,4.80
2018-05-03T03:49:22.319Z,6.30
2018-05-03T03:53:24.839Z,6.53
2018-05-03T03:57:27.381Z,9.17
2018-05-03T04:01:29.907Z,5.77
2018-05-03T04:10:01.007Z,6.33
2018-05-03T04:14:03.651Z,7.00
2018-05-03T04:18:18.775Z,6.57
2018-05-03T04:22:33.368Z,8.97
2018-05-03T04:26:35.775Z,7.90
2018-05-03T04:30:43.113Z,9.17
2018-05-03T04:34:45.674Z,8.77
2018-05-03T04:38:48.230Z,6.30
2018-05-03T04:42:50.775Z,6.17
2018-05-03T04:46:54.150Z,9.23
2018-05-03T04:50:56.655Z,7.30
2018-05-03T04:54:59.339Z,6.93
2018-05-03T04:59:01.859Z,8.90
2018-05-03T05:03:05.316Z,5.60
2018-05-03T05:07:07.888Z,8.00
2018-05-03T05:11:10.444Z,8.47
2018-05-03T05:15:17.819Z,5.90
2018-05-03T05:19:20.467Z,8.30
2018-05-03T05:23:22.985Z,6.67
2018-05-03T05:27:26.314Z,10.30
2018-05-03T05:31:28.835Z,8.93
2018-05-03T05:35:31.476Z,9.20
2018-05-03T05:39:33.999Z,13.10
2018-05-03T05:43:42.338Z,8.87
2018-05-03T05:47:58.594Z,11.53
2018-05-03T05:52:01.911Z,8.77
2018-05-03T05:56:05.418Z,10.20
2018-05-03T06:00:08.369Z,10.97
2018-05-03T06:04:11.759Z,10.80
2018-05-03T06:08:14.390Z,11.40
2018-05-03T06:12:17.741Z,14.90
2018-05-03T06:16:20.734Z,15.63
2018-05-03T06:20:24.035Z,12.00
2018-05-03T06:24:26.986Z,12.60
2018-05-03T06:28:43.807Z,11.50
2018-05-03T06:32:47.122Z,10.30
2018-05-03T06:36:49.682Z,12.90
2018-05-03T06:40:52.243Z,11.33
2018-05-03T06:44:55.743Z,11.03
2018-05-03T06:48:58.295Z,10.20
2018-05-03T06:53:01.582Z,10.43
2018-05-03T06:57:09.306Z,10.00
2018-05-03T07:01:11.881Z,11.77
2018-05-03T07:05:14.427Z,8.80
2018-05-03T07:09:16.953Z,10.20
2018-05-03T07:13:20.273Z,9.27
2018-05-03T07:17:23.554Z,8.53
2018-05-03T07:21:26.403Z,12.40
2018-05-03T07:25:28.919Z,10.27
2018-05-03T07:29:32.375Z,10.73
2018-05-03T07:33:34.834Z,10.80
2018-05-03T07:37:37.390Z,11.67
2018-05-03T07:41:39.932Z,13.27
2018-05-03T07:45:47.467Z,12.50
2018-05-03T07:49:49.991Z,13.30
2018-05-03T07:53:53.307Z,15.03
2018-05-03T07:57:56.594Z,13.63
2018-05-03T08:01:59.249Z,12.87
2018-05-03T08:06:02.683Z,13.50
2018-05-03T08:10:05.968Z,12.57
2018-05-03T08:14:08.499Z,13.30
2018-05-03T08:18:16.715Z,15.07
2018-05-03T08:22:19.316Z,10.90
2018-05-03T08:26:22.570Z,11.00
2018-05-03T08:30:50.567Z,9.93
2018-05-03T08:34:53.891Z,11.97
2018-05-03T08:39:07.288Z,10.90
2018-05-03T08:43:09.859Z,8.73
2018-05-03T08:47:13.166Z,9.73
2018-05-03T08:51:15.710Z,7.63
2018-05-03T08:55:18.234Z,7.97
2018-05-03T08:59:21.534Z,7.93
2018-05-03T09:03:24.063Z,8.37
2018-05-03T09:07:26.658Z,6.67
2018-05-03T09:11:29.925Z,7.63
2018-05-03T09:15:32.564Z,7.17
2018-05-03T09:19:35.850Z,6.67
2018-05-03T09:23:38.503Z,10.03
2018-05-03T09:27:41.035Z,7.10
2018-05-03T09:31:43.668Z,5.80
2018-05-03T09:35:50.458Z,5.77
2018-05-03T09:39:53.016Z,6.83
2018-05-03T09:43:56.306Z,6.30
2018-05-03T09:47:58.851Z,6.40
2018-05-03T09:52:01.392Z,6.60
2018-05-03T09:56:04.702Z,6.17
2018-05-03T10:00:07.219Z,8.73
2018-05-03T10:04:10.631Z,5.83
2018-05-03T10:08:13.154Z,6.47
2018-05-03T10:12:15.707Z,7.77
2018-05-03T10:16:18.986Z,6.70
2018-05-03T10:20:21.826Z,6.07
2018-05-03T10:24:24.366Z,7.00
2018-05-03T10:28:35.103Z,8.20
2018-05-03T10:32:39.561Z,6.90
2018-05-03T10:36:42.099Z,5.93
2018-05-03T10:40:44.612Z,6.03
2018-05-03T10:44:50.259Z,6.90
2018-05-03T10:48:52.943Z,7.10
2018-05-03T10:52:56.270Z,7.83
2018-05-03T10:56:58.782Z,6.10
2018-05-03T11:01:01.412Z,7.03
2018-05-03T11:05:03.934Z,5.30
2018-05-03T11:09:06.479Z,4.47
2018-05-03T11:13:08.998Z,4.63
2018-05-03T11:17:11.540Z,4.93
2018-05-03T11:21:14.054Z,7.43
2018-05-03T11:25:16.634Z,3.90
2018-05-03T11:29:19.198Z,6.50
2018-05-03T11:33:21.833Z,3.33
2018-05-03T11:37:24.351Z,6.23
2018-05-03T11:41:26.898Z,4.67
2018-05-03T11:45:30.182Z,3.63
2018-05-03T11:49:32.733Z,3.30
2018-05-03T11:53:41.182Z,4.07
2018-05-03T11:57:43.722Z,4.17
2018-05-03T12:01:48.167Z,5.17
2018-05-03T12:05:54.580Z,3.40
2018-05-03T12:09:57.835Z,5.03
2018-05-03T12:14:03.176Z,2.60
2018-05-03T12:18:05.691Z,5.03
2018-05-03T12:22:12.207Z,4.97
2018-05-03T12:26:15.490Z,4.63
2018-05-03T12:30:18.090Z,4.83
2018-05-03T12:34:21.623Z,3.73
2018-05-03T12:38:24.475Z,5.83
2018-05-03T12:42:26.998Z,4.47
2018-05-03T12:46:30.512Z,5.53
2018-05-03T12:50:33.032Z,7.07
2018-05-03T12:54:41.039Z,8.00
2018-05-03T12:58:44.357Z,5.03
2018-05-03T13:02:47.027Z,4.47
2018-05-03T13:06:50.567Z,5.57
2018-05-03T13:10:53.210Z,4.67
2018-05-03T13:14:55.739Z,3.77
2018-05-03T13:18:59.150Z,6.57
2018-05-03T13:23:01.670Z,5.80
2018-05-03T13:27:05.076Z,3.10
2018-05-03T13:31:12.886Z,4.37
2018-05-03T13:35:15.455Z,5.60
2018-05-03T13:39:17.991Z,6.97
2018-05-03T13:43:20.546Z,8.03
2018-05-03T13:47:25.806Z,5.30
2018-05-03T13:51:28.390Z,4.77
2018-05-03T13:55:30.935Z,2.80
2018-05-03T13:59:33.585Z,2.13
2018-05-03T14:03:36.110Z,4.03
2018-05-03T14:07:39.155Z,5.27
2018-05-03T14:11:44.369Z,4.97
2018-05-03T14:15:51.095Z,4.13
2018-05-03T14:19:53.611Z,7.53
2018-05-03T14:23:56.158Z,4.53
2018-05-03T14:27:59.602Z,5.00
2018-05-03T14:32:02.244Z,13.00
2018-05-03T14:36:04.763Z,6.13
2018-05-03T14:40:07.321Z,4.60
2018-05-03T14:44:09.830Z,5.57
2018-05-03T14:48:14.331Z,5.67
2018-05-03T14:52:17.618Z,7.47
2018-05-03T14:56:20.154Z,4.13
2018-05-03T15:00:28.348Z,3.77
2018-05-03T15:04:37.330Z,4.10
2018-05-03T15:08:39.847Z,5.93
2018-05-03T15:12:42.507Z,7.97
2018-05-03T15:16:45.036Z,5.57
2018-05-03T15:21:02.358Z,2.67
2018-05-03T15:25:04.875Z,5.07
2018-05-03T15:29:07.554Z,4.97
2018-05-03T15:33:22.422Z,5.23
2018-05-03T15:37:35.847Z,6.53
2018-05-03T15:41:38.354Z,9.33
2018-05-03T15:45:41.003Z,5.87
2018-05-03T15:49:44.422Z,6.00
2018-05-03T15:53:55.395Z,5.67
2018-05-03T15:57:57.914Z,3.97
2018-05-03T16:02:01.935Z,7.67
2018-05-03T16:10:32.471Z,6.20
2018-05-03T16:14:34.999Z,3.50
2018-05-03T16:18:40.288Z,6.10
2018-05-03T16:22:46.299Z,7.07
2018-05-03T16:26:48.851Z,5.40
2018-05-03T16:30:51.408Z,4.93
2018-05-03T16:34:55.093Z,6.63
2018-05-03T16:38:57.607Z,4.87
2018-05-03T16:43:00.175Z,3.90
2018-05-03T16:47:02.703Z,4.00
2018-05-03T16:51:06.519Z,8.87
2018-05-03T16:55:09.068Z,6.07
2018-05-03T16:59:12.389Z,4.27
2018-05-03T17:03:19.966Z,4.33
2018-05-03T17:07:22.517Z,6.57
2018-05-03T17:11:25.810Z,5.37
2018-05-03T17:15:28.415Z,5.23
2018-05-03T17:19:30.966Z,4.30
2018-05-03T17:23:37.114Z,3.13
2018-05-03T17:27:39.635Z,8.10
2018-05-03T17:31:44.187Z,7.70
2018-05-03T17:35:47.503Z,4.17
2018-05-03T17:39:50.067Z,3.73
2018-05-03T17:43:52.602Z,4.07
2018-05-03T17:47:55.217Z,5.97
2018-05-03T17:51:57.750Z,8.30
2018-05-03T17:56:01.058Z,7.40
2018-05-03T18:00:03.588Z,2.73
2018-05-03T18:04:06.901Z,4.40
2018-05-03T18:08:10.412Z,4.33
2018-05-03T18:12:12.961Z,4.97
2018-05-03T18:16:19.229Z,7.73
2018-05-03T18:20:21.724Z,4.63
2018-05-03T18:24:32.441Z,4.70
2018-05-03T18:28:35.771Z,4.13
2018-05-03T18:32:38.284Z,6.13
2018-05-03T18:36:46.959Z,4.97
2018-05-03T18:40:50.479Z,9.90
2018-05-03T18:44:53.023Z,3.17
2018-05-03T18:48:55.542Z,5.53
2018-05-03T18:52:58.863Z,6.33
2018-05-03T18:57:04.615Z,5.33
2018-05-03T19:01:09.299Z,2.30
2018-05-03T19:05:11.826Z,4.57
2018-05-03T19:09:14.688Z,6.00
2018-05-03T19:13:17.306Z,3.57
2018-05-03T19:17:19.930Z,7.43
2018-05-03T19:21:22.524Z,6.70
2018-05-03T19:25:25.275Z,6.53
2018-05-03T19:29:27.876Z,6.50
2018-05-03T19:33:30.482Z,7.67
2018-05-03T19:37:33.126Z,5.90
2018-05-03T19:41:36.696Z,7.43
2018-05-03T19:45:41.275Z,5.60
2018-05-03T19:49:43.840Z,4.73
2018-05-03T19:53:46.368Z,5.13
2018-05-03T19:58:00.202Z,3.77
2018-05-03T20:02:02.758Z,6.10
2018-05-03T20:06:10.546Z,5.93
2018-05-03T20:10:13.084Z,7.43
2018-05-03T20:14:17.612Z,4.00
2018-05-03T20:18:21.128Z,9.50
2018-05-03T20:22:23.680Z,3.17
2018-05-03T20:26:26.234Z,3.90
2018-05-03T20:30:29.792Z,5.57
2018-05-03T20:34:33.294Z,6.37
2018-05-03T20:38:36.211Z,4.07
2018-05-03T20:42:38.734Z,4.57
2018-05-03T20:46:41.289Z,4.37
2018-05-03T20:50:47.502Z,3.67
2018-05-03T20:54:50.145Z,5.20
2018-05-03T20:58:52.670Z,6.20
2018-05-03T21:02:55.987Z,6.57
2018-05-03T21:06:58.502Z,7.73
2018-05-03T21:11:01.083Z,4.80
2018-05-03T21:15:03.603Z,4.33
2018-05-03T21:19:11.706Z,6.23
2018-05-03T21:23:14.279Z,3.93
2018-05-03T21:27:18.788Z,5.33
2018-05-03T21:31:21.303Z,5.10
2018-05-03T21:35:24.096Z,4.90
2018-05-03T21:39:26.621Z,4.83
2018-05-03T21:43:30.035Z,4.90
2018-05-03T21:47:33.328Z,5.53
2018-05-03T21:51:35.890Z,7.77
2018-05-03T21:55:38.426Z,7.60
2018-05-03T21:59:41.167Z,5.63
2018-05-03T22:03:43.702Z,5.80
2018-05-03T22:07:46.246Z,8.87
2018-05-03T22:11:48.771Z,8.87
2018-05-03T22:15:51.314Z,5.07
2018-05-03T22:19:53.828Z,4.07
2018-05-03T22:23:56.375Z,3.63
2018-05-03T22:27:58.890Z,5.20
2018-05-03T22:32:01.435Z,7.23
2018-05-03T22:36:03.959Z,8.23
2018-05-03T22:40:06.678Z,7.53
2018-05-03T22:44:09.207Z,3.63
2018-05-03T22:48:11.748Z,5.70
2018-05-03T22:52:14.314Z,3.43
2018-05-03T22:56:16.860Z,3.93
2018-05-03T23:00:20.142Z,4.70
2018-05-03T23:04:22.711Z,3.63
2018-05-03T23:08:25.223Z,4.63
2018-05-03T23:12:27.773Z,5.63
2018-05-03T23:16:30.314Z,4.30
2018-05-03T23:20:33.634Z,5.13
2018-05-03T23:24:36.923Z,4.00
2018-05-03T23:28:39.478Z,3.37
2018-05-03T23:32:42.003Z,5.83
2018-05-03T23:36:44.550Z,7.57
2018-05-03T23:40:48.043Z,3.03
2018-05-03T23:44:50.595Z,4.00
2018-05-03T23:48:53.102Z,5.73
2018-05-03T23:52:55.653Z,4.50
2018-05-03T23:56:59.088Z,8.13
